createdAt,value
2023-04-09T00:02:35.834Z,9.07
2023-04-09T00:05:40.330Z,8.57
2023-04-09T00:08:43.103Z,8.95
2023-04-09T00:11:46.208Z,9.90
2023-04-09T00:14:48.832Z,8.98
2023-04-09T00:17:52.427Z,8.02
2023-04-09T00:20:55.336Z,8.82
2023-04-09T00:23:58.452Z,8.35
2023-04-09T00:27:01.109Z,8.50
2023-04-09T00:30:04.477Z,8.38
2023-04-09T00:33:07.512Z,8.65
2023-04-09T00:36:10.408Z,8.40
2023-04-09T00:39:13.132Z,8.02
2023-04-09T00:42:16.587Z,7.80
2023-04-09T00:45:19.212Z,8.15
2023-04-09T00:48:22.808Z,7.78
2023-04-09T00:51:26.457Z,7.28
2023-04-09T00:54:29.424Z,8.45
2023-04-09T00:57:32.545Z,7.85
2023-04-09T01:00:36.150Z,8.27
2023-04-09T01:03:39.348Z,7.68
2023-04-09T01:06:55.977Z,8.10
2023-04-09T01:10:24.332Z,8.23
2023-04-09T01:13:55.438Z,7.90
2023-04-09T01:17:06.153Z,8.32
2023-04-09T01:20:14.484Z,7.70
2023-04-09T01:23:37.540Z,8.52
2023-04-09T01:27:05.440Z,7.82
2023-04-09T01:30:10.649Z,8.02
2023-04-09T01:33:16.683Z,8.45
2023-04-09T01:36:20.860Z,8.10
2023-04-09T01:39:24.117Z,8.35
2023-04-09T01:42:29.110Z,7.28
2023-04-09T01:45:34.017Z,8.63
2023-04-09T01:48:38.105Z,8.52
2023-04-09T01:51:41.651Z,8.20
2023-04-09T01:54:44.325Z,9.00
2023-04-09T01:57:47.282Z,8.35
2023-04-09T02:00:54.729Z,8.80
2023-04-09T02:04:02.616Z,8.35
2023-04-09T02:07:11.311Z,8.73
2023-04-09T02:10:17.366Z,8.80
2023-04-09T02:13:21.375Z,8.68
2023-04-09T02:16:25.857Z,8.75
2023-04-09T02:19:46.093Z,8.35
2023-04-09T02:25:53.689Z,8.05
2023-04-09T02:28:56.425Z,8.05
2023-04-09T02:31:59.607Z,8.48
2023-04-09T02:35:02.295Z,8.73
2023-04-09T02:38:05.327Z,8.10
2023-04-09T02:41:08.346Z,9.50
2023-04-09T02:44:11.966Z,8.60
2023-04-09T02:47:14.545Z,8.75
2023-04-09T02:50:19.092Z,8.88
2023-04-09T02:53:22.040Z,9.32
2023-04-09T02:56:24.996Z,8.88
2023-04-09T02:59:27.682Z,9.27
2023-04-09T03:02:31.156Z,8.82
2023-04-09T03:05:33.953Z,8.35
2023-04-09T03:08:37.122Z,8.30
2023-04-09T03:11:46.848Z,9.32
2023-04-09T03:14:50.189Z,9.48
2023-04-09T03:17:53.099Z,10.20
2023-04-09T03:20:57.480Z,8.43
2023-04-09T03:24:02.273Z,9.35
2023-04-09T03:27:05.504Z,9.18
2023-04-09T03:30:08.712Z,9.38
2023-04-09T03:33:12.206Z,8.82
2023-04-09T03:36:18.015Z,9.10
2023-04-09T03:39:21.744Z,8.38
2023-04-09T03:42:24.823Z,8.77
2023-04-09T03:45:29.404Z,8.15
2023-04-09T03:48:42.639Z,9.20
2023-04-09T03:51:45.952Z,9.35
2023-04-09T03:54:49.099Z,10.05
2023-04-09T03:57:52.344Z,10.25
2023-04-09T04:00:56.024Z,9.00
2023-04-09T04:03:59.796Z,8.60
2023-04-09T04:07:04.143Z,10.20
2023-04-09T04:10:07.786Z,9.25
2023-04-09T04:13:11.161Z,9.70
2023-04-09T04:16:14.438Z,9.75
2023-04-09T04:19:17.575Z,9.98
2023-04-09T04:22:21.027Z,9.32
2023-04-09T04:25:25.982Z,10.63
2023-04-09T04:28:30.242Z,10.52
2023-04-09T04:31:33.329Z,9.18
2023-04-09T04:34:36.997Z,9.68
2023-04-09T04:37:43.566Z,8.98
2023-04-09T04:40:57.880Z,9.15
2023-04-09T04:44:00.986Z,9.57
2023-04-09T04:47:03.909Z,8.75
2023-04-09T04:50:07.669Z,8.90
2023-04-09T04:53:16.269Z,9.68
2023-04-09T04:56:19.288Z,10.10
2023-04-09T04:59:22.936Z,9.65
2023-04-09T05:02:29.636Z,11.02
2023-04-09T05:05:36.068Z,11.60
2023-04-09T05:08:38.858Z,10.25
2023-04-09T05:11:41.849Z,10.65
2023-04-09T05:14:45.010Z,11.80
2023-04-09T05:17:48.206Z,11.55
2023-04-09T05:20:51.668Z,11.07
2023-04-09T05:23:54.801Z,11.15
2023-04-09T05:26:57.710Z,12.18
2023-04-09T05:30:01.416Z,11.90
2023-04-09T05:33:06.511Z,11.50
2023-04-09T05:36:15.941Z,11.77
2023-04-09T05:39:18.694Z,12.00
2023-04-09T05:42:22.323Z,10.82
2023-04-09T05:45:25.911Z,10.50
2023-04-09T05:48:28.956Z,10.50
2023-04-09T05:51:32.767Z,10.18
2023-04-09T05:54:36.553Z,10.68
2023-04-09T05:57:39.665Z,12.07
2023-04-09T06:00:42.848Z,12.55
2023-04-09T06:03:46.197Z,10.85
2023-04-09T06:06:49.150Z,12.00
2023-04-09T06:09:52.151Z,11.30
2023-04-09T06:12:55.109Z,11.30
2023-04-09T06:15:58.167Z,11.95
2023-04-09T06:19:00.816Z,11.65
2023-04-09T06:22:05.742Z,11.73
2023-04-09T06:25:08.651Z,14.43
2023-04-09T06:28:11.672Z,15.52
2023-04-09T06:31:14.613Z,23.42
2023-04-09T06:34:17.644Z,13.98
2023-04-09T06:37:20.389Z,15.10
2023-04-09T06:40:23.605Z,11.35
2023-04-09T06:43:26.240Z,12.10
2023-04-09T06:46:29.559Z,10.13
2023-04-09T06:49:32.207Z,11.10
2023-04-09T06:52:35.421Z,10.73
2023-04-09T06:55:37.997Z,9.38
2023-04-09T06:58:41.034Z,8.98
2023-04-09T07:01:43.895Z,9.60
2023-04-09T07:04:47.851Z,9.40
2023-04-09T07:07:50.729Z,7.68
2023-04-09T07:10:53.703Z,8.27
2023-04-09T07:13:56.910Z,7.87
2023-04-09T07:16:59.993Z,7.37
2023-04-09T07:20:02.720Z,7.93
2023-04-09T07:23:05.866Z,8.30
2023-04-09T07:26:08.742Z,5.80
2023-04-09T07:29:11.940Z,6.25
2023-04-09T07:32:15.988Z,6.60
2023-04-09T07:35:18.965Z,5.60
2023-04-09T07:38:21.664Z,6.43
2023-04-09T07:41:24.558Z,4.87
2023-04-09T07:44:28.434Z,6.25
2023-04-09T07:47:31.979Z,7.18
2023-04-09T07:50:36.395Z,4.90
2023-04-09T07:53:39.555Z,6.55
2023-04-09T07:56:42.135Z,6.80
2023-04-09T07:59:45.228Z,6.50
2023-04-09T08:02:48.425Z,7.60
2023-04-09T08:05:51.626Z,6.50
2023-04-09T08:08:54.587Z,4.95
2023-04-09T08:11:57.836Z,6.05
2023-04-09T08:15:03.598Z,6.70
2023-04-09T08:18:07.237Z,6.55
2023-04-09T08:21:10.587Z,6.10
2023-04-09T08:24:13.480Z,6.00
2023-04-09T08:27:16.142Z,5.90
2023-04-09T08:30:19.353Z,6.50
2023-04-09T08:33:22.262Z,6.22
2023-04-09T08:36:26.427Z,6.85
2023-04-09T08:39:29.149Z,6.05
2023-04-09T08:42:35.633Z,5.80
2023-04-09T08:45:41.375Z,5.18
2023-04-09T08:48:48.569Z,6.72
2023-04-09T08:51:52.171Z,6.78
2023-04-09T08:54:55.524Z,9.32
2023-04-09T08:57:58.558Z,8.63
2023-04-09T09:01:01.920Z,8.23
2023-04-09T09:04:06.703Z,6.28
2023-04-09T09:07:09.786Z,6.50
2023-04-09T09:10:12.459Z,7.15
2023-04-09T09:13:22.427Z,6.35
2023-04-09T09:16:25.162Z,6.47
2023-04-09T09:19:30.618Z,7.18
2023-04-09T09:22:54.824Z,6.10
2023-04-09T09:25:58.487Z,5.65
2023-04-09T09:29:05.763Z,5.62
2023-04-09T09:32:13.731Z,7.40
2023-04-09T09:35:16.443Z,8.82
2023-04-09T09:38:20.223Z,6.03
2023-04-09T09:41:23.876Z,6.05
2023-04-09T09:44:33.643Z,5.80
2023-04-09T09:47:37.582Z,6.50
2023-04-09T09:50:42.002Z,5.78
2023-04-09T09:53:47.140Z,5.90
2023-04-09T09:56:52.936Z,5.95
2023-04-09T10:00:04.294Z,5.15
2023-04-09T10:03:23.506Z,4.90
2023-04-09T10:06:27.743Z,5.35
2023-04-09T10:09:31.411Z,5.43
2023-04-09T10:12:34.791Z,5.85
2023-04-09T10:15:38.393Z,6.53
2023-04-09T10:18:42.727Z,6.62
2023-04-09T10:22:01.987Z,6.75
2023-04-09T10:25:06.494Z,5.72
2023-04-09T10:28:17.912Z,5.53
2023-04-09T10:31:21.048Z,6.28
2023-04-09T10:34:28.018Z,6.22
2023-04-09T10:37:31.939Z,6.15
2023-04-09T10:40:34.834Z,6.00
2023-04-09T10:43:37.954Z,6.30
2023-04-09T10:46:42.283Z,6.90
2023-04-09T10:49:45.249Z,7.37
2023-04-09T10:52:53.541Z,5.85
2023-04-09T10:55:56.590Z,7.25
2023-04-09T10:58:59.420Z,6.22
2023-04-09T18:25:34.936Z,9.98
2023-04-09T18:28:39.518Z,10.77
2023-04-09T18:31:42.546Z,10.27
2023-04-09T18:34:47.137Z,10.15
2023-04-09T18:37:49.850Z,10.65
2023-04-09T18:40:52.809Z,10.30
2023-04-09T18:43:55.605Z,8.93
2023-04-09T18:46:59.688Z,10.05
2023-04-09T18:50:02.475Z,8.85
2023-04-09T18:53:06.674Z,9.07
2023-04-09T18:56:09.497Z,9.13
2023-04-09T18:59:12.844Z,9.52
2023-04-09T19:02:15.818Z,10.00
2023-04-09T19:05:19.053Z,9.27
2023-04-09T19:08:22.417Z,10.13
2023-04-09T19:11:26.142Z,9.43
2023-04-09T19:14:29.092Z,9.82
2023-04-09T19:17:32.270Z,9.15
2023-04-09T19:20:34.969Z,11.23
2023-04-09T19:23:38.141Z,10.65
2023-04-09T19:26:41.080Z,9.98
2023-04-09T19:29:44.869Z,11.10
2023-04-09T19:32:47.627Z,9.65
2023-04-09T19:35:52.423Z,9.15
2023-04-09T19:38:55.819Z,10.07
2023-04-09T19:41:58.908Z,9.40
2023-04-09T19:45:02.017Z,10.30
2023-04-09T19:48:08.758Z,9.80
2023-04-09T19:51:18.142Z,9.23
2023-04-09T19:54:21.814Z,10.38
2023-04-09T19:57:26.540Z,9.77
2023-04-09T20:00:29.758Z,10.85
2023-04-09T20:03:33.445Z,8.50
2023-04-09T20:06:36.080Z,9.10
2023-04-09T20:09:42.522Z,9.15
2023-04-09T20:12:50.091Z,9.55
2023-04-09T20:15:52.976Z,9.93
2023-04-09T20:18:55.940Z,9.45
2023-04-09T20:22:00.337Z,8.02
2023-04-09T20:25:02.955Z,8.95
